Time;durP1;ratioP1;P1;durP2;ratioP2;P2;SDS_P1;SDS_P2;PMS_P1;PMS_P2;Temp;Humidity;BMP_temperature;BMP_pressure;BME280_temperature;BME280_humidity;BME280_pressure;Samples;Min_cycle;Max_cycle;Signal;HPM_P1;HPM_P2
2022/07/30 00:01:28;;;;;;;7.32;3.65;;;16.20;99.90;;;;;;4992561;28;20061;-83
2022/07/30 00:03:54;;;;;;;5.80;2.90;;;15.90;99.90;;;;;;5010357;28;20116;-83
2022/07/30 00:06:19;;;;;;;6.55;3.70;;;15.90;99.90;;;;;;5007053;28;20041;-83
2022/07/30 00:08:45;;;;;;;7.35;4.10;;;15.90;99.90;;;;;;5009326;28;20070;-83
2022/07/30 00:11:12;;;;;;;9.00;4.90;;;15.90;99.90;;;;;;4992535;28;20053;-83
2022/07/30 00:13:37;;;;;;;9.50;4.55;;;15.90;99.90;;;;;;5007479;28;20077;-82
2022/07/30 00:16:03;;;;;;;7.18;4.38;;;16.00;99.90;;;;;;5008853;28;20077;-83
2022/07/30 00:18:28;;;;;;;13.10;5.15;;;15.90;99.90;;;;;;4993876;28;20481;-83
2022/07/30 00:20:54;;;;;;;8.10;5.32;;;15.80;99.90;;;;;;5010695;28;20045;-83
2022/07/30 00:23:20;;;;;;;7.75;4.22;;;15.80;99.90;;;;;;5009768;28;20077;-83
2022/07/30 00:25:45;;;;;;;7.72;4.10;;;15.80;99.90;;;;;;4998868;28;20100;-83
2022/07/30 00:28:11;;;;;;;7.05;4.03;;;15.80;99.90;;;;;;5008678;28;20049;-83
2022/07/30 00:30:37;;;;;;;7.25;3.92;;;15.70;99.90;;;;;;5009031;28;20459;-83
2022/07/30 00:33:03;;;;;;;9.50;4.13;;;15.70;99.90;;;;;;5010403;28;20053;-83
2022/07/30 00:35:28;;;;;;;7.65;4.00;;;15.60;99.90;;;;;;4992191;28;20079;-83
2022/07/30 00:37:54;;;;;;;6.22;3.92;;;15.50;99.90;;;;;;5010082;28;20476;-83
2022/07/30 00:40:20;;;;;;;8.82;4.35;;;15.60;99.90;;;;;;5007121;28;20057;-82
2022/07/30 00:42:46;;;;;;;7.25;4.10;;;15.60;99.90;;;;;;4995000;28;20042;-83
2022/07/30 00:45:14;;;;;;;12.52;4.78;;;15.40;99.90;;;;;;5009717;28;20511;-81
2022/07/30 00:47:40;;;;;;;7.85;4.40;;;15.40;99.90;;;;;;4990968;28;20120;-82
2022/07/30 00:50:08;;;;;;;7.95;4.55;;;15.20;99.90;;;;;;5008411;28;20069;-82
2022/07/30 00:52:35;;;;;;;9.07;4.63;;;15.30;99.90;;;;;;4992388;28;20111;-83
2022/07/30 00:55:00;;;;;;;11.20;4.30;;;15.20;99.90;;;;;;5008805;28;20046;-82
2022/07/30 00:57:27;;;;;;;7.82;4.60;;;15.30;99.90;;;;;;4993122;28;20520;-83
2022/07/30 00:59:54;;;;;;;9.95;5.15;;;15.20;99.90;;;;;;5000646;28;20042;-83
2022/07/30 01:02:20;;;;;;;8.43;4.82;;;15.20;99.90;;;;;;5010865;28;20424;-83
2022/07/30 01:04:46;;;;;;;8.05;4.80;;;15.10;99.90;;;;;;5009048;28;20065;-83
2022/07/30 01:07:11;;;;;;;11.45;4.75;;;15.10;99.90;;;;;;4991805;28;20486;-83
2022/07/30 01:09:38;;;;;;;8.20;4.78;;;15.10;99.90;;;;;;4989035;28;20489;-83
2022/07/30 01:12:05;;;;;;;9.98;5.03;;;15.00;99.90;;;;;;4987882;28;20863;-82
2022/07/30 01:14:35;;;;;;;9.32;4.90;;;15.00;99.90;;;;;;5004408;28;20121;-83
2022/07/30 01:17:02;;;;;;;11.38;4.93;;;15.00;99.90;;;;;;5005237;28;20069;-83
2022/07/30 01:19:48;;;;;;;7.65;4.72;;;15.00;99.90;;;;;;5010793;28;20117;-82
2022/07/30 01:22:14;;;;;;;8.82;4.70;;;15.00;99.90;;;;;;4977653;28;20049;-83
2022/07/30 01:24:44;;;;;;;8.57;4.20;;;15.00;99.90;;;;;;4986732;28;20046;-83
2022/07/30 01:27:12;;;;;;;7.38;4.53;;;14.90;99.90;;;;;;4987992;28;20046;-83
2022/07/30 01:29:40;;;;;;;9.00;5.03;;;14.90;99.90;;;;;;4980095;28;20058;-82
2022/07/30 01:32:07;;;;;;;7.53;5.10;;;14.90;99.90;;;;;;4980862;28;20050;-83
2022/07/30 01:34:36;;;;;;;9.68;5.10;;;14.90;99.90;;;;;;4994926;28;20081;-83
2022/07/30 01:37:03;;;;;;;11.38;4.97;;;14.80;99.90;;;;;;5007206;28;20510;-82
2022/07/30 01:39:30;;;;;;;8.25;5.30;;;14.80;99.90;;;;;;4982948;28;20104;-82
2022/07/30 01:41:57;;;;;;;7.43;4.57;;;14.80;99.90;;;;;;4991037;28;20053;-82
2022/07/30 01:44:25;;;;;;;7.18;4.30;;;15.40;99.90;;;;;;5013984;28;20139;-83
2022/07/30 01:46:53;;;;;;;7.95;4.72;;;14.80;99.90;;;;;;5010593;28;20073;-82
2022/07/30 01:49:20;;;;;;;6.88;4.28;;;14.70;99.90;;;;;;5013560;28;20052;-83
2022/07/30 01:51:48;;;;;;;7.60;4.70;;;14.70;99.90;;;;;;4995491;28;20045;-83
2022/07/30 01:54:16;;;;;;;6.43;4.97;;;14.70;99.90;;;;;;5005073;28;20045;-83
2022/07/30 01:56:44;;;;;;;9.00;4.60;;;14.70;99.90;;;;;;4992494;28;20061;-83
2022/07/30 01:59:12;;;;;;;7.30;4.80;;;14.70;99.90;;;;;;4993588;28;20999;-83
2022/07/30 02:01:38;;;;;;;8.70;5.45;;;14.70;99.90;;;;;;5011318;28;20085;-83
2022/07/30 02:04:04;;;;;;;7.78;5.00;;;14.60;99.90;;;;;;4995513;28;20082;-83
2022/07/30 02:06:45;;;;;;;9.02;5.20;;;14.60;99.90;;;;;;4995113;28;20409;-83
2022/07/30 02:09:14;;;;;;;9.75;5.18;;;14.60;99.90;;;;;;4995439;28;20673;-83
2022/07/30 02:14:36;;;;;;;8.32;4.88;;;14.60;99.90;;;;;;5012648;28;20077;-82
2022/07/30 02:17:05;;;;;;;8.60;6.00;;;14.60;99.90;;;;;;4994279;28;20492;-83
2022/07/30 02:19:40;;;;;;;9.88;5.85;;;14.60;99.90;;;;;;5012180;28;20516;-83
2022/07/30 02:22:12;;;;;;;9.00;4.88;;;14.50;99.90;;;;;;4995006;28;20095;-83
2022/07/30 02:24:41;;;;;;;9.93;5.53;;;14.50;99.90;;;;;;4993571;28;20488;-83
2022/07/30 02:27:18;;;;;;;7.82;5.88;;;14.50;99.90;;;;;;4994921;28;20045;-83
2022/07/30 02:29:46;;;;;;;8.75;5.50;;;14.50;99.90;;;;;;5000568;28;20405;-82
2022/07/30 02:32:16;;;;;;;8.25;5.03;;;14.40;99.90;;;;;;4992925;28;20481;-83
2022/07/30 02:34:46;;;;;;;9.32;5.50;;;14.40;99.90;;;;;;5012846;28;20481;-83
2022/07/30 02:37:13;;;;;;;9.52;5.25;;;14.40;99.90;;;;;;4994528;28;20057;-83
2022/07/30 02:39:41;;;;;;;7.75;4.43;;;14.40;99.90;;;;;;5012308;28;20050;-83
2022/07/30 02:42:09;;;;;;;7.00;4.50;;;14.40;99.90;;;;;;5006423;28;20045;-83
2022/07/30 02:44:37;;;;;;;9.07;5.13;;;14.40;99.90;;;;;;5010137;28;20062;-82
2022/07/30 02:47:04;;;;;;;9.90;5.28;;;14.30;99.90;;;;;;5012491;28;20056;-83
2022/07/30 02:49:34;;;;;;;10.18;5.30;;;14.30;99.90;;;;;;5011805;28;20045;-84
2022/07/30 02:52:02;;;;;;;7.55;4.40;;;14.20;99.90;;;;;;5012415;28;20095;-82
2022/07/30 02:54:30;;;;;;;8.48;5.03;;;14.20;99.90;;;;;;5011184;28;20042;-83
2022/07/30 02:56:59;;;;;;;8.85;4.82;;;14.20;99.90;;;;;;5012352;28;20049;-83
2022/07/30 02:59:27;;;;;;;6.68;5.20;;;14.20;99.90;;;;;;4988003;28;20040;-83
2022/07/30 03:01:54;;;;;;;10.20;6.00;;;14.20;99.90;;;;;;5009762;28;20046;-83
2022/07/30 03:04:20;;;;;;;8.60;6.22;;;14.20;99.90;;;;;;4993412;28;20472;-82
2022/07/30 03:06:48;;;;;;;12.45;8.95;;;14.20;99.90;;;;;;4994207;28;20050;-83
2022/07/30 03:09:16;;;;;;;15.23;7.38;;;14.20;99.90;;;;;;4994105;28;20072;-83
2022/07/30 03:11:43;;;;;;;11.07;6.15;;;14.20;99.90;;;;;;4994603;28;20042;-83
2022/07/30 03:14:10;;;;;;;9.63;6.40;;;14.20;99.90;;;;;;5009930;28;20053;-83
2022/07/30 03:16:37;;;;;;;8.60;5.60;;;14.20;99.90;;;;;;5011466;28;20096;-83
2022/07/30 03:19:08;;;;;;;7.07;5.45;;;14.20;99.90;;;;;;5009926;28;20060;-83
2022/07/30 03:21:36;;;;;;;8.75;6.07;;;14.50;99.90;;;;;;4992511;28;20107;-83
2022/07/30 03:24:05;;;;;;;8.02;5.60;;;14.40;99.90;;;;;;4994005;28;20485;-83
2022/07/30 03:26:33;;;;;;;11.68;7.05;;;14.10;99.90;;;;;;5009140;28;20042;-83
2022/07/30 03:29:00;;;;;;;12.70;7.63;;;14.00;99.90;;;;;;5010652;28;20057;-83
2022/07/30 03:31:26;;;;;;;11.32;8.60;;;14.00;99.90;;;;;;4992926;28;20096;-83
2022/07/30 03:33:52;;;;;;;9.43;7.80;;;14.00;99.90;;;;;;4993307;28;20049;-83
2022/07/30 03:36:18;;;;;;;12.18;6.70;;;14.00;99.90;;;;;;4992876;28;20141;-83
2022/07/30 03:38:45;;;;;;;9.02;6.50;;;13.90;99.90;;;;;;5011928;28;20116;-83
2022/07/30 03:41:11;;;;;;;11.30;7.05;;;14.00;99.90;;;;;;4991788;28;20090;-83
2022/07/30 03:43:38;;;;;;;9.50;7.10;;;13.90;99.90;;;;;;5011100;28;20089;-82
2022/07/30 03:46:06;;;;;;;10.07;7.53;;;13.80;99.90;;;;;;4996438;28;20493;-83
2022/07/30 03:48:34;;;;;;;11.73;7.25;;;13.80;99.90;;;;;;4989546;28;20042;-83
2022/07/30 03:51:02;;;;;;;13.57;8.38;;;13.80;99.90;;;;;;4994335;28;20072;-83
2022/07/30 03:53:28;;;;;;;10.57;8.00;;;13.80;99.90;;;;;;5010896;28;20026;-83
2022/07/30 03:55:57;;;;;;;11.60;8.00;;;13.80;99.90;;;;;;5009948;28;20571;-82
2022/07/30 03:58:23;;;;;;;13.38;8.65;;;14.10;99.90;;;;;;4990272;28;20113;-82
2022/07/30 04:00:49;;;;;;;11.30;7.18;;;13.70;99.90;;;;;;5007747;28;20111;-82
2022/07/30 04:03:26;;;;;;;10.35;8.55;;;13.70;99.90;;;;;;4985158;28;20053;-82
2022/07/30 04:05:52;;;;;;;11.57;7.90;;;13.70;99.90;;;;;;5006866;28;20513;-83
2022/07/30 04:08:18;;;;;;;10.93;7.90;;;13.70;99.90;;;;;;4992677;28;20125;-83
2022/07/30 04:10:43;;;;;;;10.20;8.18;;;13.70;99.90;;;;;;5006660;28;20113;-83
2022/07/30 04:13:09;;;;;;;12.95;8.85;;;13.70;99.90;;;;;;4990744;28;20129;-83
2022/07/30 04:16:01;;;;;;;13.60;8.40;;;13.70;99.90;;;;;;5009830;28;20167;-83
2022/07/30 04:18:32;;;;;;;13.70;9.32;;;13.70;99.90;;;;;;5010967;28;20406;-83
2022/07/30 04:20:59;;;;;;;13.13;9.07;;;13.70;99.90;;;;;;4993722;28;20042;-83
2022/07/30 04:23:25;;;;;;;12.95;9.35;;;13.70;99.90;;;;;;4992202;28;20049;-82
2022/07/30 04:25:51;;;;;;;13.10;9.60;;;13.70;99.90;;;;;;5010984;28;20045;-83
2022/07/30 04:28:19;;;;;;;12.07;9.00;;;13.70;99.90;;;;;;5009887;28;20815;-83
2022/07/30 04:30:45;;;;;;;14.70;9.90;;;14.40;99.90;;;;;;5009500;28;20066;-83
2022/07/30 04:33:11;;;;;;;12.75;9.13;;;13.70;99.90;;;;;;5010641;28;20081;-83
2022/07/30 04:35:37;;;;;;;12.15;8.48;;;14.10;99.90;;;;;;4992617;28;20053;-83
2022/07/30 04:38:03;;;;;;;14.48;9.40;;;13.70;99.90;;;;;;4988178;28;20042;-82
2022/07/30 04:40:30;;;;;;;11.82;7.60;;;13.70;99.90;;;;;;5009875;28;20180;-83
2022/07/30 04:42:56;;;;;;;13.32;9.45;;;13.70;99.90;;;;;;5001163;28;20034;-83
2022/07/30 04:45:22;;;;;;;13.80;10.73;;;13.70;99.90;;;;;;4991001;28;20046;-83
2022/07/30 04:47:52;;;;;;;12.68;10.18;;;13.70;99.90;;;;;;4991978;28;20391;-83
2022/07/30 04:50:20;;;;;;;19.65;13.43;;;13.70;99.90;;;;;;4992316;28;20045;-83
2022/07/30 04:52:47;;;;;;;20.48;12.70;;;13.80;99.90;;;;;;5008973;28;20034;-83
2022/07/30 04:55:13;;;;;;;13.77;10.90;;;13.80;99.90;;;;;;5008595;28;20062;-83
2022/07/30 04:57:41;;;;;;;16.05;11.93;;;13.80;99.90;;;;;;5007211;28;20552;-82
2022/07/30 05:00:08;;;;;;;14.45;11.60;;;13.80;99.90;;;;;;5007598;28;20049;-83
2022/07/30 05:02:36;;;;;;;17.77;12.63;;;13.90;99.90;;;;;;5009645;28;20056;-83
2022/07/30 05:05:03;;;;;;;17.30;12.73;;;13.90;99.90;;;;;;4990293;28;20064;-83
2022/07/30 05:07:30;;;;;;;14.60;10.93;;;13.90;99.90;;;;;;4993813;28;20038;-83
2022/07/30 05:09:56;;;;;;;16.77;12.60;;;14.00;99.90;;;;;;5008669;28;20040;-83
2022/07/30 05:12:32;;;;;;;16.35;12.43;;;14.00;99.90;;;;;;5009635;28;20130;-83
2022/07/30 05:14:57;;;;;;;15.90;12.35;;;14.00;99.90;;;;;;5008780;28;20072;-83
2022/07/30 05:17:23;;;;;;;17.00;11.75;;;14.10;99.90;;;;;;5010472;28;20053;-83
2022/07/30 05:19:48;;;;;;;23.92;12.88;;;14.10;99.90;;;;;;5014105;28;20125;-84
2022/07/30 05:22:14;;;;;;;15.27;10.57;;;14.10;99.90;;;;;;5015618;28;20046;-82
2022/07/30 05:24:40;;;;;;;14.90;11.48;;;14.20;99.90;;;;;;5015401;28;20068;-82
2022/07/30 05:27:05;;;;;;;16.73;12.45;;;14.20;99.90;;;;;;5012054;28;20042;-83
2022/07/30 05:29:31;;;;;;;14.95;11.90;;;14.30;99.90;;;;;;5012893;28;20065;-81
2022/07/30 05:31:56;;;;;;;15.52;12.00;;;14.30;99.90;;;;;;4996271;28;20466;-82
2022/07/30 05:34:22;;;;;;;17.77;12.82;;;14.30;99.90;;;;;;4996936;28;20073;-82
2022/07/30 05:36:48;;;;;;;16.77;12.93;;;14.40;99.90;;;;;;4997635;28;20053;-82
2022/07/30 05:39:15;;;;;;;14.18;12.18;;;14.40;99.90;;;;;;5012405;28;20497;-85
2022/07/30 05:41:40;;;;;;;19.55;13.52;;;14.40;99.90;;;;;;5012893;28;20478;-85
2022/07/30 05:44:06;;;;;;;16.42;12.85;;;14.50;99.90;;;;;;5014534;28;20038;-85
2022/07/30 05:46:32;;;;;;;16.95;12.93;;;14.50;99.90;;;;;;5013346;28;20057;-86
2022/07/30 05:48:58;;;;;;;17.42;13.38;;;14.60;99.90;;;;;;5011899;28;20069;-86
2022/07/30 05:51:23;;;;;;;14.52;11.10;;;14.60;99.90;;;;;;5011746;28;20073;-85
2022/07/30 05:53:49;;;;;;;21.30;13.00;;;14.70;99.90;;;;;;4980410;28;20548;-86
2022/07/30 05:56:15;;;;;;;17.17;13.52;;;15.00;99.90;;;;;;4996148;28;20069;-85
2022/07/30 05:58:40;;;;;;;16.40;12.98;;;14.70;99.90;;;;;;5011054;28;20386;-85
2022/07/30 06:01:06;;;;;;;19.83;13.40;;;15.40;99.90;;;;;;4994379;28;20080;-86
2022/07/30 06:03:33;;;;;;;18.13;13.43;;;15.20;99.90;;;;;;4992654;28;20037;-87
2022/07/30 06:05:58;;;;;;;21.08;13.20;;;14.90;99.90;;;;;;4994278;28;20121;-84
2022/07/30 06:08:24;;;;;;;19.27;13.38;;;14.90;99.90;;;;;;5010598;28;20536;-85
2022/07/30 06:10:49;;;;;;;18.00;14.80;;;15.00;99.90;;;;;;4995479;28;20049;-86
2022/07/30 06:13:15;;;;;;;18.98;14.88;;;15.00;99.90;;;;;;4993936;28;20053;-86
2022/07/30 06:15:40;;;;;;;19.63;13.25;;;15.10;99.90;;;;;;4994784;28;20141;-86
2022/07/30 06:18:06;;;;;;;17.95;13.98;;;15.70;99.90;;;;;;4988547;28;20046;-86
2022/07/30 06:20:33;;;;;;;15.57;12.15;;;15.40;99.90;;;;;;4991688;28;20413;-85
2022/07/30 06:22:58;;;;;;;18.60;14.18;;;15.30;99.90;;;;;;5010893;28;20037;-83
2022/07/30 06:25:24;;;;;;;21.85;15.95;;;15.40;99.90;;;;;;4994937;28;20057;-84
2022/07/30 06:27:50;;;;;;;18.75;15.32;;;15.50;99.90;;;;;;5000774;28;20053;-84
2022/07/30 06:30:15;;;;;;;18.85;14.65;;;15.60;99.90;;;;;;4982726;28;20042;-84
2022/07/30 06:32:42;;;;;;;16.17;13.40;;;15.70;99.90;;;;;;4994600;28;20465;-85
2022/07/30 06:35:08;;;;;;;16.80;12.80;;;16.10;99.90;;;;;;5011455;28;20041;-84
2022/07/30 06:37:34;;;;;;;17.80;13.88;;;15.90;99.90;;;;;;4994910;28;20034;-83
2022/07/30 06:39:59;;;;;;;20.55;13.82;;;15.90;99.90;;;;;;4995515;28;20061;-84
2022/07/30 06:42:25;;;;;;;15.85;12.95;;;16.00;99.90;;;;;;5009578;28;20388;-81
2022/07/30 06:44:50;;;;;;;17.02;13.05;;;16.10;99.90;;;;;;5011269;28;20088;-78
2022/07/30 06:47:25;;;;;;;19.05;12.05;;;16.10;99.90;;;;;;4995280;28;20379;-80
2022/07/30 06:49:51;;;;;;;17.60;12.05;;;16.40;99.90;;;;;;5012619;28;20125;-78
2022/07/30 06:52:17;;;;;;;15.55;11.55;;;16.30;99.90;;;;;;5011847;28;20067;-82
2022/07/30 06:54:42;;;;;;;16.52;11.02;;;16.30;99.90;;;;;;4995089;28;20065;-79
2022/07/30 06:57:08;;;;;;;17.23;11.68;;;16.50;99.90;;;;;;5009913;28;20570;-78
2022/07/30 06:59:33;;;;;;;15.85;11.13;;;16.50;99.90;;;;;;5001308;28;20057;-84
2022/07/30 07:01:59;;;;;;;22.65;12.02;;;16.70;99.90;;;;;;4987138;28;20563;-86
2022/07/30 07:04:24;;;;;;;19.05;11.35;;;16.70;99.90;;;;;;4987331;28;20092;-85
2022/07/30 07:06:50;;;;;;;24.45;13.80;;;17.00;99.90;;;;;;5004366;28;20706;-86
2022/07/30 07:09:16;;;;;;;16.85;10.63;;;16.90;99.90;;;;;;5011583;28;20100;-85
2022/07/30 07:11:41;;;;;;;19.75;11.63;;;17.00;99.90;;;;;;4989219;28;20389;-86
2022/07/30 07:14:07;;;;;;;17.52;11.15;;;17.00;99.90;;;;;;4994165;28;20572;-86
2022/07/30 07:16:33;;;;;;;26.63;12.55;;;17.10;99.90;;;;;;4985760;28;20041;-86
2022/07/30 07:18:58;;;;;;;22.02;11.60;;;17.20;99.90;;;;;;4984887;28;20537;-86
2022/07/30 07:21:24;;;;;;;19.17;11.15;;;17.40;99.90;;;;;;5000217;28;20117;-86
2022/07/30 07:23:50;;;;;;;17.33;10.18;;;17.50;99.90;;;;;;4998325;28;20043;-86
2022/07/30 07:26:16;;;;;;;15.55;9.70;;;17.70;99.90;;;;;;5002707;28;21072;-84
2022/07/30 07:28:41;;;;;;;22.80;10.05;;;18.00;99.90;;;;;;4998888;28;20034;-86
2022/07/30 07:31:08;;;;;;;19.00;10.43;;;18.20;99.90;;;;;;5004907;28;20371;-86
2022/07/30 07:33:34;;;;;;;23.13;9.73;;;18.70;99.90;;;;;;4984805;28;20149;-86
2022/07/30 07:35:59;;;;;;;15.20;8.73;;;18.80;99.90;;;;;;5005996;28;20162;-86
2022/07/30 07:38:25;;;;;;;16.17;9.27;;;19.00;99.90;;;;;;5004037;28;20503;-86
2022/07/30 07:40:50;;;;;;;15.82;9.75;;;19.40;99.90;;;;;;4991779;28;20041;-85
2022/07/30 07:43:16;;;;;;;14.13;8.60;;;20.00;99.90;;;;;;5011422;28;20093;-86
2022/07/30 07:45:42;;;;;;;15.80;9.38;;;19.70;99.90;;;;;;5010632;28;20042;-87
2022/07/30 07:48:08;;;;;;;14.88;8.55;;;19.90;99.90;;;;;;4996290;28;20121;-87
2022/07/30 07:50:33;;;;;;;14.23;8.07;;;20.10;99.90;;;;;;5005995;28;20050;-86
2022/07/30 07:52:59;;;;;;;13.13;7.63;;;20.30;99.90;;;;;;4994360;28;20111;-86
2022/07/30 07:55:25;;;;;;;16.85;8.13;;;20.40;99.90;;;;;;5010846;28;20058;-86
2022/07/30 07:57:51;;;;;;;18.73;7.40;;;20.50;99.90;;;;;;5007468;28;20052;-84
2022/07/30 08:00:24;;;;;;;20.65;8.15;;;20.50;99.90;;;;;;5116114;27;20130;-77
2022/07/30 08:02:49;;;;;;;16.20;7.97;;;20.60;99.90;;;;;;5104313;28;20147;-75
2022/07/30 08:05:38;;;;;;;12.95;7.32;;;20.70;99.90;;;;;;5080290;28;20131;-85
2022/07/30 08:08:57;;;;;;;17.65;7.35;;;20.70;99.90;;;;;;5080044;28;20039;-86
2022/07/30 08:11:31;;;;;;;18.15;7.90;;;20.70;99.90;;;;;;5070872;28;20044;-85
2022/07/30 08:13:56;;;;;;;12.88;7.97;;;20.90;99.90;;;;;;5075198;28;20052;-84
2022/07/30 08:16:22;;;;;;;20.38;6.95;;;20.90;99.90;;;;;;5054058;28;20049;-83
2022/07/30 08:18:48;;;;;;;14.60;7.75;;;21.30;99.90;;;;;;5050434;28;20044;-84
2022/07/30 08:21:14;;;;;;;13.07;7.20;;;20.90;99.90;;;;;;5049851;28;20052;-85
2022/07/30 08:23:40;;;;;;;12.95;7.20;;;21.00;99.90;;;;;;5064821;28;20048;-85
2022/07/30 08:26:06;;;;;;;13.95;6.85;;;21.10;99.90;;;;;;5084001;28;20056;-85
2022/07/30 08:28:32;;;;;;;11.57;6.95;;;21.20;99.90;;;;;;5067668;28;20119;-86
2022/07/30 08:30:57;;;;;;;12.52;6.15;;;21.30;99.90;;;;;;5048983;28;20051;-85
2022/07/30 08:33:23;;;;;;;12.52;6.10;;;21.40;99.90;;;;;;5071974;28;20036;-86
2022/07/30 08:35:49;;;;;;;12.32;6.55;;;21.40;99.90;;;;;;5086752;28;20127;-87
2022/07/30 08:38:15;;;;;;;8.77;5.68;;;21.50;99.90;;;;;;5068808;28;20403;-85
2022/07/30 08:40:40;;;;;;;9.02;5.38;;;21.60;99.90;;;;;;5050354;28;20045;-86
2022/07/30 08:43:07;;;;;;;15.20;5.60;;;21.50;99.90;;;;;;5078065;28;20060;-86
2022/07/30 08:49:14;;;;;;;11.30;6.05;;;21.80;99.90;;;;;;5056707;28;20063;-86
2022/07/30 08:52:07;;;;;;;12.32;5.93;;;21.80;99.90;;;;;;5066661;28;20105;-85
2022/07/30 08:57:40;;;;;;;12.68;4.90;;;21.80;99.90;;;;;;5048980;28;20102;-85
2022/07/30 09:00:07;;;;;;;10.95;5.18;;;21.90;99.90;;;;;;5066324;28;20128;-84
2022/07/30 09:02:42;;;;;;;11.45;4.82;;;22.00;99.90;;;;;;5066954;28;20045;-84
2022/07/30 09:05:09;;;;;;;10.43;4.10;;;22.10;99.90;;;;;;5066296;28;20412;-84
2022/07/30 09:07:36;;;;;;;8.20;4.80;;;22.20;99.90;;;;;;5066689;28;20049;-84
2022/07/30 09:10:25;;;;;;;13.85;4.68;;;22.40;99.90;;;;;;5065316;28;20373;-85
2022/07/30 09:12:54;;;;;;;10.52;4.57;;;22.30;99.90;;;;;;5053356;28;20045;-85
2022/07/30 09:15:21;;;;;;;10.07;3.28;;;22.30;99.90;;;;;;5069975;28;20482;-85
2022/07/30 09:17:47;;;;;;;10.60;4.30;;;22.40;99.90;;;;;;5067647;28;20050;-85
2022/07/30 09:20:13;;;;;;;8.38;4.53;;;22.60;99.90;;;;;;5079019;28;20036;-86
2022/07/30 09:22:44;;;;;;;12.10;4.25;;;22.60;99.90;;;;;;5086356;28;20054;-87
2022/07/30 09:25:09;;;;;;;12.23;4.22;;;22.70;99.90;;;;;;5072329;28;20507;-85
2022/07/30 09:27:46;;;;;;;11.05;3.80;;;22.60;99.90;;;;;;5066186;28;20044;-86
2022/07/30 09:30:13;;;;;;;9.85;4.07;;;22.40;99.90;;;;;;5073796;28;20040;-85
2022/07/30 09:32:53;;;;;;;6.47;3.53;;;22.40;99.90;;;;;;5071266;28;20047;-85
2022/07/30 09:35:28;;;;;;;9.32;4.00;;;22.50;99.90;;;;;;5066959;28;20041;-85
2022/07/30 09:38:00;;;;;;;10.63;3.55;;;22.50;99.90;;;;;;5068458;28;20102;-86
2022/07/30 09:40:29;;;;;;;9.52;3.72;;;22.60;99.90;;;;;;5080452;28;20040;-86
2022/07/30 09:43:10;;;;;;;14.30;3.67;;;22.70;99.90;;;;;;5073673;28;20257;-85
2022/07/30 09:45:54;;;;;;;8.43;3.33;;;23.00;99.90;;;;;;5079464;28;20165;-86
2022/07/30 09:48:25;;;;;;;7.88;2.85;;;22.90;99.90;;;;;;5081102;28;20048;-85
2022/07/30 09:50:52;;;;;;;9.02;3.00;;;22.90;99.90;;;;;;5072625;28;20044;-86
2022/07/30 09:53:21;;;;;;;6.97;2.63;;;23.10;99.90;;;;;;5053671;28;20125;-86
2022/07/30 09:55:47;;;;;;;10.23;3.00;;;23.30;99.90;;;;;;5066176;28;20488;-86
2022/07/30 09:58:13;;;;;;;9.50;3.35;;;23.30;99.90;;;;;;5062112;28;20051;-86
2022/07/30 10:00:39;;;;;;;8.18;3.22;;;23.40;99.90;;;;;;5072284;28;20434;-86
2022/07/30 10:03:20;;;;;;;9.93;2.95;;;23.40;99.90;;;;;;5069803;28;20076;-86
2022/07/30 10:05:57;;;;;;;8.75;2.88;;;23.60;99.90;;;;;;5066746;28;20053;-85
2022/07/30 10:08:46;;;;;;;6.85;3.08;;;23.60;99.90;;;;;;5073275;28;20039;-86
2022/07/30 10:11:14;;;;;;;8.73;3.25;;;23.70;99.90;;;;;;5070095;28;20044;-86
2022/07/30 10:13:53;;;;;;;8.23;3.10;;;23.80;99.90;;;;;;5044375;28;20043;-86
2022/07/30 10:16:19;;;;;;;8.82;3.00;;;23.80;99.90;;;;;;5052464;28;20043;-84
2022/07/30 10:18:48;;;;;;;7.90;2.70;;;23.90;99.90;;;;;;5052654;28;20128;-86
2022/07/30 10:21:14;;;;;;;8.32;2.72;;;23.90;99.90;;;;;;5055648;28;20072;-86
2022/07/30 10:23:40;;;;;;;7.38;3.00;;;24.00;99.90;;;;;;5066224;28;20036;-87
2022/07/30 10:26:07;;;;;;;6.10;2.67;;;23.90;99.90;;;;;;5038978;28;20455;-86
2022/07/30 10:28:36;;;;;;;12.32;3.22;;;23.90;99.90;;;;;;5053523;28;20076;-86
2022/07/30 10:31:02;;;;;;;7.50;2.78;;;23.60;99.90;;;;;;5072557;28;20044;-85
2022/07/30 10:33:29;;;;;;;9.05;2.80;;;23.40;99.90;;;;;;5055660;28;20044;-86
2022/07/30 10:35:58;;;;;;;8.73;3.08;;;23.40;99.90;;;;;;5069587;28;20044;-85
2022/07/30 10:38:46;;;;;;;8.52;2.58;;;23.30;99.90;;;;;;5058012;28;20514;-86
2022/07/30 10:41:28;;;;;;;7.00;2.75;;;23.70;99.90;;;;;;5053765;28;20080;-86
2022/07/30 10:44:20;;;;;;;9.70;3.10;;;23.90;99.90;;;;;;5034107;28;20095;-87
2022/07/30 10:47:05;;;;;;;7.68;3.10;;;24.10;99.90;;;;;;5056226;28;20084;-86
2022/07/30 10:49:31;;;;;;;8.70;3.20;;;24.40;99.90;;;;;;5043323;28;20400;-89
2022/07/30 10:51:57;;;;;;;8.82;2.63;;;24.50;99.90;;;;;;5063643;28;20927;-88
2022/07/30 10:54:32;;;;;;;7.45;2.88;;;24.60;99.90;;;;;;5065683;28;20445;-89
2022/07/30 10:57:07;;;;;;;7.28;2.47;;;24.60;99.90;;;;;;5068934;28;20123;-89
2022/07/30 10:59:54;;;;;;;5.95;2.42;;;24.70;99.90;;;;;;5045455;28;20056;-88
2022/07/30 11:02:34;;;;;;;9.18;2.53;;;24.80;99.90;;;;;;5089754;28;20131;-89
2022/07/30 11:05:21;;;;;;;6.85;2.03;;;24.90;99.90;;;;;;5065271;28;20047;-89
2022/07/30 11:07:47;;;;;;;6.72;2.30;;;24.80;99.30;;;;;;5064099;28;20535;-88
2022/07/30 11:10:43;;;;;;;8.35;2.03;;;24.70;99.90;;;;;;5068205;28;20120;-89
2022/07/30 11:13:15;;;;;;;8.93;2.58;;;24.60;99.90;;;;;;5058190;28;20152;-88
2022/07/30 11:15:54;;;;;;;9.32;2.45;;;24.40;99.90;;;;;;5078283;28;20080;-90
2022/07/30 11:18:21;;;;;;;4.65;2.28;;;24.40;99.90;;;;;;5069179;28;20042;-90
2022/07/30 11:21:19;;;;;;;5.03;2.22;;;24.40;99.90;;;;;;5070012;28;20083;-90
2022/07/30 11:23:54;;;;;;;6.00;2.10;;;24.40;99.70;;;;;;5069069;28;20041;-89
2022/07/30 11:26:38;;;;;;;5.82;2.35;;;24.40;99.70;;;;;;5055422;28;20506;-90
2022/07/30 11:29:05;;;;;;;5.78;2.28;;;24.70;99.40;;;;;;5065155;28;20372;-90
2022/07/30 11:31:31;;;;;;;4.68;2.00;;;24.80;99.30;;;;;;5069867;28;20049;-88
2022/07/30 11:34:19;;;;;;;8.82;2.20;;;24.90;99.00;;;;;;5062939;28;20045;-90
2022/07/30 11:37:03;;;;;;;7.22;2.13;;;24.90;98.70;;;;;;5049672;28;20048;-89
2022/07/30 11:40:04;;;;;;;;;;;25.00;97.80;;;;;;5049854;28;20095;-89
2022/07/30 11:42:43;;;;;;;4.35;2.10;;;25.00;97.00;;;;;;5050615;28;19924;-88
2022/07/30 11:45:21;;;;;;;6.28;2.08;;;25.20;98.50;;;;;;5080993;28;20043;-90
2022/07/30 11:47:53;;;;;;;5.25;1.88;;;25.30;98.00;;;;;;5086750;28;20040;-89
2022/07/30 11:50:24;;;;;;;9.10;2.45;;;25.60;98.20;;;;;;5055875;28;20037;-90
2022/07/30 11:52:55;;;;;;;6.75;2.15;;;25.50;97.70;;;;;;5068713;28;20087;-89
2022/07/30 11:55:29;;;;;;;6.40;2.30;;;25.50;97.80;;;;;;5061771;28;20037;-90
2022/07/30 11:57:55;;;;;;;5.03;2.42;;;25.60;97.60;;;;;;5072523;28;20398;-90
2022/07/30 12:00:21;;;;;;;4.80;1.90;;;25.50;97.10;;;;;;5076218;28;20511;-89
2022/07/30 12:02:48;;;;;;;6.38;1.75;;;25.50;96.80;;;;;;5081879;28;20072;-88
2022/07/30 12:05:15;;;;;;;5.20;2.13;;;25.60;96.80;;;;;;5091099;28;20040;-87
2022/07/30 12:07:41;;;;;;;5.47;1.98;;;25.60;96.50;;;;;;5069885;28;20045;-87
2022/07/30 12:10:14;;;;;;;5.85;1.77;;;25.80;96.50;;;;;;5066747;28;20048;-88
2022/07/30 12:12:40;;;;;;;7.18;1.73;;;25.90;96.50;;;;;;5066632;28;20090;-87
2022/07/30 12:15:06;;;;;;;10.18;1.80;;;26.10;95.30;;;;;;5069261;28;20510;-88
2022/07/30 12:17:42;;;;;;;5.75;1.65;;;26.10;95.60;;;;;;5081897;28;20040;-88
2022/07/30 12:20:18;;;;;;;7.13;1.77;;;26.00;94.10;;;;;;5074791;28;20437;-86
2022/07/30 12:22:45;;;;;;;4.57;1.55;;;25.80;94.40;;;;;;5065296;28;20475;-87
2022/07/30 12:25:11;;;;;;;5.78;1.98;;;25.60;94.90;;;;;;5069490;28;20047;-86
2022/07/30 12:27:37;;;;;;;3.70;1.50;;;25.40;94.00;;;;;;5085358;28;20032;-87
2022/07/30 12:30:05;;;;;;;5.50;1.60;;;25.30;95.00;;;;;;5084052;28;20479;-87
2022/07/30 12:32:31;;;;;;;4.90;1.75;;;25.40;95.20;;;;;;5085569;28;21670;-87
2022/07/30 12:34:57;;;;;;;5.03;1.80;;;25.60;95.30;;;;;;5086887;28;20048;-87
2022/07/30 12:37:23;;;;;;;5.88;1.60;;;25.90;94.70;;;;;;5072557;28;20171;-87
2022/07/30 12:40:07;;;;;;;4.00;1.40;;;26.10;94.20;;;;;;5082225;28;20047;-86
2022/07/30 12:42:33;;;;;;;4.68;1.70;;;26.30;93.30;;;;;;5061901;28;20053;-85
2022/07/30 12:44:58;;;;;;;4.85;1.67;;;26.30;93.80;;;;;;5072815;28;20094;-85
2022/07/30 12:47:26;;;;;;;6.53;1.65;;;26.20;93.70;;;;;;5085868;28;20055;-86
2022/07/30 12:49:54;;;;;;;8.38;1.73;;;26.60;93.90;;;;;;5093740;28;20040;-87
2022/07/30 12:52:31;;;;;;;8.05;1.73;;;26.70;93.50;;;;;;5078470;28;20056;-87
2022/07/30 12:55:03;;;;;;;3.45;1.30;;;26.80;93.00;;;;;;5076315;28;20507;-87
2022/07/30 12:57:50;;;;;;;4.35;1.33;;;26.80;92.80;;;;;;5073036;28;20403;-85
2022/07/30 13:00:15;;;;;;;;;;;26.70;92.30;;;;;;5092920;28;20064;-85